Ferrells Creek, Kentucky
Current Conditions -  °F | °C
As of 4:35 AM on Friday 28 Nov 2014 (Local Time) from KPBX Reporting Station
Overcast Overcast  
Wind Chill: 28°   Ceiling: 2200
Heat Index: 28°   Visibility: 10mi
Dew Point: 21°   Wind: 3mph
Humidity: 77%   Direction: 260°W
Pressure: 30.33"   Gusts: NA
Location:  37.3106°N, 82.4001°W
Report Text: KPBX 280935Z AUTO 26003KT 10SM BKN022 OVC034 M02/M06 A3033 RMK AO2 T10251060
Loading
Personal Weather Stations






























Interactive Weather Map New forecast layout! Learn more

10-Day Weather Forecast

Advertisements
Track Severe Weather on mobile